Time;durP1;ratioP1;P1;durP2;ratioP2;P2;SDS_P1;SDS_P2;PMS_P1;PMS_P2;Temp;Humidity;BMP_temperature;BMP_pressure;BME280_temperature;BME280_humidity;BME280_pressure;Samples;Min_cycle;Max_cycle;Signal;HPM_P1;HPM_P2
2022/04/06 00:00:07;;;;;;;6.77;5.23;;;9.60;99.90;;;;;;4973693;28;21100;-86
2022/04/06 00:02:32;;;;;;;5.77;5.27;;;9.60;99.90;;;;;;4973114;28;20431;-86
2022/04/06 00:05:00;;;;;;;5.80;5.30;;;9.60;99.90;;;;;;4985154;28;21487;-86
2022/04/06 00:07:26;;;;;;;5.80;5.30;;;9.60;99.90;;;;;;4973874;28;20723;-86
2022/04/06 00:09:51;;;;;;;5.70;5.20;;;9.60;99.90;;;;;;4968925;28;21085;-86
2022/04/06 00:12:17;;;;;;;5.60;5.07;;;9.60;99.90;;;;;;4966171;28;20454;-86
2022/04/06 00:14:43;;;;;;;5.40;5.00;;;9.60;99.90;;;;;;4967209;28;20405;-86
2022/04/06 00:17:10;;;;;;;5.80;5.30;;;9.60;99.90;;;;;;4982324;28;20186;-86
2022/04/06 00:19:36;;;;;;;6.37;5.77;;;9.60;99.90;;;;;;4983513;28;20390;-86
2022/04/06 00:22:16;;;;;;;6.30;5.80;;;9.70;99.90;;;;;;4979799;28;20471;-86
2022/04/06 00:24:42;;;;;;;5.50;5.00;;;9.70;99.90;;;;;;4976576;28;21237;-85
2022/04/06 00:27:08;;;;;;;5.53;5.03;;;9.70;99.90;;;;;;4962670;28;20617;-85
2022/04/06 00:29:33;;;;;;;5.57;5.17;;;9.60;99.90;;;;;;4973667;28;20532;-85
2022/04/06 00:32:13;;;;;;;5.93;5.43;;;9.70;99.90;;;;;;4962888;28;20202;-85
2022/04/06 00:37:39;;;;;;;5.87;5.37;;;9.60;99.90;;;;;;4927116;28;20638;-86
2022/04/06 00:40:09;;;;;;;5.67;5.10;;;9.70;99.90;;;;;;4957263;28;20629;-85
2022/04/06 00:42:57;;;;;;;5.50;5.10;;;9.60;99.90;;;;;;4969530;28;20258;-85
2022/04/06 00:45:24;;;;;;;5.03;4.73;;;9.60;99.90;;;;;;4969829;28;21070;-85
2022/04/06 00:47:50;;;;;;;5.70;5.20;;;9.60;99.90;;;;;;4974061;28;20949;-85
2022/04/06 00:50:17;;;;;;;5.30;4.80;;;9.60;99.90;;;;;;4974600;28;20477;-85
2022/04/06 00:52:43;;;;;;;5.87;5.37;;;9.60;99.90;;;;;;4961063;28;20440;-85
2022/04/06 00:55:11;;;;;;;5.70;5.20;;;9.60;99.90;;;;;;4971084;28;20543;-85
2022/04/06 00:57:37;;;;;;;5.60;4.93;;;9.60;99.90;;;;;;4954136;28;20189;-85
2022/04/06 01:00:05;;;;;;;5.90;5.40;;;9.60;99.90;;;;;;4959912;28;20501;-85
2022/04/06 01:02:31;;;;;;;5.63;5.13;;;9.60;99.90;;;;;;4967766;28;20800;-85
2022/04/06 01:04:57;;;;;;;5.53;5.00;;;9.60;99.90;;;;;;4978195;28;20515;-85
2022/04/06 01:07:23;;;;;;;4.97;4.57;;;9.60;99.90;;;;;;4971547;28;20461;-84
2022/04/06 01:09:49;;;;;;;5.67;5.17;;;9.60;99.90;;;;;;4969434;28;20257;-85
2022/04/06 01:12:15;;;;;;;5.27;4.77;;;9.60;99.90;;;;;;4967244;28;20452;-84
2022/04/06 01:14:41;;;;;;;5.33;4.83;;;9.50;99.90;;;;;;4958756;28;20196;-84
2022/04/06 01:17:08;;;;;;;5.20;4.80;;;9.50;99.90;;;;;;4961461;28;21874;-85
2022/04/06 01:19:36;;;;;;;5.23;4.83;;;9.50;99.90;;;;;;4980281;28;20448;-84
2022/04/06 01:22:13;;;;;;;5.23;4.50;;;9.50;99.90;;;;;;4983275;28;21219;-85
2022/04/06 01:24:40;;;;;;;5.00;4.60;;;9.50;99.90;;;;;;4962208;28;20927;-84
2022/04/06 01:27:07;;;;;;;5.47;5.00;;;9.50;99.90;;;;;;4959136;28;20452;-85
2022/04/06 01:29:33;;;;;;;5.50;4.80;;;9.50;99.90;;;;;;4969371;28;20450;-84
2022/04/06 01:32:08;;;;;;;5.33;4.93;;;9.50;99.90;;;;;;4964765;28;20460;-85
2022/04/06 01:34:34;;;;;;;5.53;4.70;;;9.50;99.90;;;;;;4965824;28;23595;-85
2022/04/06 01:37:00;;;;;;;5.00;4.60;;;9.50;99.90;;;;;;4976704;28;21210;-84
2022/04/06 01:39:25;;;;;;;4.90;4.50;;;9.60;99.90;;;;;;4957207;28;20327;-84
2022/04/06 01:41:51;;;;;;;5.27;4.83;;;9.50;99.90;;;;;;4967800;28;20181;-84
2022/04/06 01:44:16;;;;;;;6.73;5.23;;;9.60;99.90;;;;;;4958379;28;20203;-84
2022/04/06 01:46:42;;;;;;;4.83;4.53;;;9.50;99.90;;;;;;4962985;28;20192;-84
2022/04/06 01:54:35;;;;;;;5.70;5.20;;;9.50;99.90;;;;;;4965775;28;20458;-85
2022/04/06 01:57:01;;;;;;;5.53;5.10;;;9.60;99.90;;;;;;4974999;28;20441;-84
2022/04/06 01:59:27;;;;;;;7.13;5.30;;;9.50;99.90;;;;;;4958155;28;20374;-84
2022/04/06 02:01:54;;;;;;;6.13;5.53;;;9.50;99.90;;;;;;4965042;28;20587;-84
2022/04/06 02:04:20;;;;;;;6.70;6.03;;;9.50;99.90;;;;;;4978270;28;20502;-84
2022/04/06 02:06:45;;;;;;;6.77;5.47;;;9.50;99.90;;;;;;4973328;28;20452;-85
2022/04/06 02:09:11;;;;;;;5.97;5.47;;;9.60;99.90;;;;;;4974718;28;20284;-85
2022/04/06 02:11:42;;;;;;;5.93;5.40;;;9.50;99.90;;;;;;4973358;28;21225;-85
2022/04/06 02:14:08;;;;;;;6.13;5.53;;;9.60;99.90;;;;;;4967137;28;20224;-84
2022/04/06 02:16:34;;;;;;;6.40;5.80;;;9.50;99.90;;;;;;4968343;28;20448;-84
2022/04/06 02:19:00;;;;;;;7.57;6.37;;;9.60;99.90;;;;;;4975889;28;21045;-85
2022/04/06 02:21:25;;;;;;;5.97;5.37;;;9.60;99.90;;;;;;4986395;28;20444;-84
2022/04/06 02:23:51;;;;;;;6.03;5.53;;;9.60;99.90;;;;;;4973936;28;20210;-85
2022/04/06 02:26:16;;;;;;;6.73;6.13;;;9.60;99.90;;;;;;4984195;28;20190;-85
2022/04/06 02:28:42;;;;;;;6.63;5.90;;;9.60;99.90;;;;;;4964276;28;20213;-84
2022/04/06 02:31:07;;;;;;;6.50;6.00;;;9.50;99.90;;;;;;4983226;28;20581;-85
2022/04/06 02:33:34;;;;;;;7.33;6.63;;;9.60;99.90;;;;;;4974130;28;20829;-85
2022/04/06 02:36:00;;;;;;;8.03;6.70;;;9.60;99.90;;;;;;4983621;28;20243;-85
2022/04/06 02:38:25;;;;;;;7.33;6.70;;;9.60;99.90;;;;;;4996770;28;20439;-85
2022/04/06 02:40:51;;;;;;;6.90;6.20;;;9.50;99.90;;;;;;4980776;28;20723;-86
2022/04/06 02:43:17;;;;;;;7.87;7.10;;;9.60;99.90;;;;;;4993649;28;20186;-85
2022/04/06 02:45:43;;;;;;;6.70;6.00;;;9.60;99.90;;;;;;4983802;28;20490;-85
2022/04/06 02:48:08;;;;;;;7.20;6.60;;;9.60;99.90;;;;;;4962754;28;20306;-84
2022/04/06 02:50:34;;;;;;;7.57;6.80;;;9.60;99.90;;;;;;4973286;28;20193;-85
2022/04/06 02:52:59;;;;;;;6.70;6.10;;;9.60;99.90;;;;;;4979236;28;20600;-85
2022/04/06 02:55:25;;;;;;;7.67;6.97;;;9.60;99.90;;;;;;4963088;28;20914;-85
2022/04/06 02:57:50;;;;;;;6.97;6.37;;;9.60;99.90;;;;;;4971340;28;20195;-85
2022/04/06 03:00:18;;;;;;;7.97;7.20;;;9.60;99.90;;;;;;4965259;28;20197;-85
2022/04/06 03:02:44;;;;;;;6.63;6.03;;;9.50;99.90;;;;;;4973857;28;20377;-85
2022/04/06 03:05:09;;;;;;;7.00;6.30;;;9.60;99.90;;;;;;4991462;28;20502;-84
2022/04/06 03:07:35;;;;;;;6.57;6.00;;;9.60;99.90;;;;;;4962950;28;20454;-85
2022/04/06 03:10:01;;;;;;;7.80;7.10;;;9.60;99.90;;;;;;4979485;28;20193;-86
2022/04/06 03:12:27;;;;;;;7.20;6.47;;;9.60;99.90;;;;;;4988001;28;20594;-85
2022/04/06 03:14:52;;;;;;;7.67;6.97;;;9.60;99.90;;;;;;4973426;28;21017;-85
2022/04/06 03:17:18;;;;;;;7.37;6.83;;;9.50;99.90;;;;;;4960562;28;20284;-84
2022/04/06 03:19:44;;;;;;;7.93;7.13;;;9.50;99.90;;;;;;4968977;28;21415;-85
2022/04/06 03:22:09;;;;;;;8.30;7.23;;;9.50;99.90;;;;;;4967204;28;20285;-85
2022/04/06 03:24:35;;;;;;;7.70;7.00;;;9.50;99.90;;;;;;4982656;28;20487;-85
2022/04/06 03:27:00;;;;;;;8.67;7.23;;;9.50;99.90;;;;;;4976145;28;20193;-85
2022/04/06 03:29:26;;;;;;;9.40;7.00;;;9.50;99.90;;;;;;4973592;28;20191;-85
2022/04/06 03:31:52;;;;;;;8.13;7.33;;;9.50;99.90;;;;;;4966186;28;20212;-85
2022/04/06 03:34:18;;;;;;;7.87;7.00;;;9.50;99.90;;;;;;4970459;28;20243;-85
2022/04/06 03:36:43;;;;;;;8.00;7.27;;;9.50;99.90;;;;;;4959207;28;20468;-86
2022/04/06 03:39:09;;;;;;;7.60;6.90;;;9.50;99.90;;;;;;4973117;28;20729;-85
2022/04/06 03:41:35;;;;;;;7.50;6.77;;;9.50;99.90;;;;;;4973066;28;20184;-85
2022/04/06 03:44:00;;;;;;;7.53;6.93;;;9.50;99.90;;;;;;4984122;28;20191;-84
2022/04/06 03:46:26;;;;;;;7.83;7.13;;;9.50;99.90;;;;;;4959289;28;20195;-84
2022/04/06 03:48:51;;;;;;;7.57;6.87;;;9.50;99.90;;;;;;4966704;28;20552;-84
2022/04/06 03:51:17;;;;;;;6.43;5.93;;;9.50;99.90;;;;;;4976207;28;20658;-84
2022/04/06 03:53:42;;;;;;;7.47;6.77;;;9.50;99.90;;;;;;4973572;28;20231;-85
2022/04/06 03:56:08;;;;;;;7.03;6.43;;;9.60;99.90;;;;;;4984794;28;20209;-84
2022/04/06 03:58:33;;;;;;;7.47;6.77;;;9.60;99.90;;;;;;4965482;28;20713;-86
2022/04/06 04:00:59;;;;;;;6.47;5.97;;;9.50;99.90;;;;;;4968797;28;20655;-85
2022/04/06 04:03:24;;;;;;;7.10;6.50;;;9.50;99.90;;;;;;4973482;28;20189;-85
2022/04/06 04:05:50;;;;;;;7.57;6.87;;;9.60;99.90;;;;;;4964461;28;20232;-85
2022/04/06 04:08:15;;;;;;;8.07;7.40;;;9.60;99.90;;;;;;4963989;28;20209;-86
2022/04/06 04:10:41;;;;;;;8.80;6.60;;;9.60;99.90;;;;;;4974707;28;20200;-85
2022/04/06 04:13:06;;;;;;;6.93;6.40;;;9.60;99.90;;;;;;4990585;28;20177;-84
2022/04/06 04:15:32;;;;;;;6.60;6.00;;;9.50;99.90;;;;;;4988247;28;20184;-85
2022/04/06 04:17:58;;;;;;;7.27;6.67;;;9.50;99.90;;;;;;5000724;28;20243;-85
2022/04/06 04:20:23;;;;;;;7.37;6.77;;;9.50;99.90;;;;;;4977654;28;20532;-85
2022/04/06 04:22:49;;;;;;;7.40;6.73;;;9.50;99.90;;;;;;4980779;28;20630;-85
2022/04/06 04:25:15;;;;;;;7.77;7.07;;;9.50;99.90;;;;;;4979750;28;20224;-85
2022/04/06 04:27:40;;;;;;;7.03;6.37;;;9.50;99.90;;;;;;4988826;28;20193;-85
2022/04/06 04:30:07;;;;;;;7.00;6.47;;;9.50;99.90;;;;;;4969243;28;20570;-85
2022/04/06 04:32:32;;;;;;;7.00;6.50;;;9.50;99.90;;;;;;4974218;28;20243;-85
2022/04/06 04:35:00;;;;;;;6.93;6.30;;;9.50;99.90;;;;;;4977455;28;20511;-84
2022/04/06 04:37:26;;;;;;;6.93;6.33;;;9.50;99.90;;;;;;4961274;28;20389;-84
2022/04/06 04:39:51;;;;;;;6.00;5.47;;;9.50;99.90;;;;;;4968988;28;20454;-84
2022/04/06 04:42:17;;;;;;;8.00;6.67;;;9.50;99.90;;;;;;4975557;28;20440;-85
2022/04/06 04:44:43;;;;;;;6.17;5.67;;;9.50;99.90;;;;;;4961700;28;20217;-85
2022/04/06 04:47:08;;;;;;;5.97;5.47;;;9.50;99.90;;;;;;4970183;28;20250;-85
2022/04/06 04:49:34;;;;;;;5.40;5.00;;;9.50;99.90;;;;;;4964037;28;20791;-86
2022/04/06 04:51:59;;;;;;;5.60;5.10;;;9.50;99.90;;;;;;4975812;28;20191;-85
2022/04/06 04:54:26;;;;;;;4.87;4.50;;;9.50;99.90;;;;;;4970377;28;20191;-85
2022/04/06 04:56:52;;;;;;;5.27;4.87;;;9.50;99.90;;;;;;4967078;28;20183;-84
2022/04/06 04:59:18;;;;;;;6.10;5.20;;;9.50;99.90;;;;;;4970073;28;20440;-85
2022/04/06 05:01:44;;;;;;;5.40;4.97;;;9.50;99.90;;;;;;4992141;28;20837;-85
2022/04/06 05:04:10;;;;;;;6.50;5.63;;;9.50;99.90;;;;;;4977513;28;20530;-85
2022/04/06 05:06:39;;;;;;;5.80;5.23;;;9.50;99.90;;;;;;5005918;28;20952;-86
2022/04/06 05:09:04;;;;;;;6.30;5.70;;;9.50;99.90;;;;;;4990654;28;20536;-85
2022/04/06 05:11:30;;;;;;;5.60;5.10;;;9.50;99.90;;;;;;4984815;28;20444;-86
2022/04/06 05:13:55;;;;;;;5.60;5.10;;;9.50;99.90;;;;;;4987023;28;20192;-85
2022/04/06 05:16:21;;;;;;;5.47;5.07;;;9.60;99.90;;;;;;4982468;28;20330;-85
2022/04/06 05:18:47;;;;;;;4.60;4.30;;;9.60;99.90;;;;;;4987345;28;20608;-85
2022/04/06 05:21:12;;;;;;;6.83;6.23;;;9.60;99.90;;;;;;4990761;28;20212;-86
2022/04/06 05:23:39;;;;;;;6.80;6.20;;;9.60;99.90;;;;;;4972690;28;20193;-86
2022/04/06 05:26:04;;;;;;;6.40;5.83;;;9.60;99.90;;;;;;4968944;28;20938;-87
2022/04/06 05:28:30;;;;;;;6.57;5.90;;;9.60;99.90;;;;;;4960145;28;20770;-85
2022/04/06 05:30:56;;;;;;;6.63;5.43;;;9.60;99.90;;;;;;4965034;28;20193;-84
2022/04/06 05:33:21;;;;;;;6.07;5.57;;;9.60;99.90;;;;;;4966362;28;20455;-85
2022/04/06 05:35:47;;;;;;;6.00;5.50;;;9.60;99.90;;;;;;4975331;28;21000;-83
2022/04/06 05:38:13;;;;;;;7.00;5.70;;;9.60;99.90;;;;;;4973869;28;20272;-85
2022/04/06 05:40:39;;;;;;;7.50;6.90;;;9.60;99.90;;;;;;4980238;28;20199;-86
2022/04/06 05:43:05;;;;;;;7.70;6.90;;;9.60;99.90;;;;;;4974708;28;21162;-84
2022/04/06 05:45:33;;;;;;;7.17;5.73;;;9.60;99.90;;;;;;4978604;28;20876;-85
2022/04/06 05:47:59;;;;;;;7.33;6.70;;;9.70;99.90;;;;;;4985550;28;21988;-85
2022/04/06 05:50:24;;;;;;;7.00;6.40;;;9.70;99.90;;;;;;4984878;28;20448;-85
2022/04/06 05:52:50;;;;;;;7.20;6.60;;;9.70;99.90;;;;;;4976097;28;20200;-86
2022/04/06 05:55:16;;;;;;;6.60;5.93;;;9.70;99.90;;;;;;4975953;28;20192;-85
2022/04/06 05:57:42;;;;;;;6.40;5.90;;;9.70;99.90;;;;;;4984970;28;20197;-85
2022/04/06 06:00:08;;;;;;;6.40;5.90;;;9.70;99.90;;;;;;4978228;28;20795;-85
2022/04/06 06:02:37;;;;;;;6.77;6.17;;;9.70;99.90;;;;;;4987291;28;20275;-85
2022/04/06 06:05:03;;;;;;;6.33;5.73;;;9.80;99.90;;;;;;4969792;28;20463;-86
2022/04/06 06:07:29;;;;;;;6.30;5.73;;;9.80;99.90;;;;;;4974574;28;20825;-85
2022/04/06 06:09:54;;;;;;;7.40;5.60;;;9.80;99.90;;;;;;4976473;28;20447;-86
2022/04/06 06:12:20;;;;;;;6.80;5.60;;;9.80;99.90;;;;;;4986201;28;21897;-86
2022/04/06 06:14:45;;;;;;;5.70;5.30;;;9.80;99.90;;;;;;5011132;28;20177;-85
2022/04/06 06:17:11;;;;;;;5.90;5.40;;;9.90;99.90;;;;;;4990226;28;20224;-86
2022/04/06 06:19:36;;;;;;;5.90;5.00;;;10.00;99.90;;;;;;4990327;28;20633;-85
2022/04/06 06:22:02;;;;;;;5.50;5.10;;;10.00;99.90;;;;;;5002176;28;20556;-87
2022/04/06 06:24:28;;;;;;;6.20;5.03;;;10.00;99.90;;;;;;4994242;28;20629;-87
2022/04/06 06:26:54;;;;;;;6.30;5.80;;;10.00;99.90;;;;;;5006669;28;20353;-86
2022/04/06 06:29:20;;;;;;;5.83;5.33;;;10.10;99.90;;;;;;5000860;28;20187;-88
2022/04/06 06:31:46;;;;;;;5.50;5.10;;;10.10;99.90;;;;;;4986033;28;20961;-87
2022/04/06 06:34:11;;;;;;;5.00;4.60;;;10.20;99.90;;;;;;4993548;28;20212;-89
2022/04/06 06:36:37;;;;;;;5.43;4.93;;;10.30;99.90;;;;;;5009018;28;20444;-87
2022/04/06 06:39:03;;;;;;;4.90;4.47;;;10.30;99.90;;;;;;4990549;28;20185;-85
2022/04/06 06:41:29;;;;;;;4.57;4.27;;;10.30;99.90;;;;;;4986685;28;20198;-86
2022/04/06 06:43:56;;;;;;;4.03;3.77;;;10.40;99.90;;;;;;4988565;28;20186;-85
2022/04/06 06:46:22;;;;;;;5.40;3.97;;;10.40;99.90;;;;;;4990728;28;20496;-86
2022/04/06 06:48:49;;;;;;;4.37;4.00;;;10.50;99.90;;;;;;4981913;28;20868;-86
2022/04/06 06:51:16;;;;;;;4.10;3.80;;;10.50;99.90;;;;;;4992865;28;20448;-87
2022/04/06 06:53:42;;;;;;;3.67;3.37;;;10.40;99.90;;;;;;5000615;28;20459;-86
2022/04/06 06:56:08;;;;;;;4.00;3.67;;;10.40;99.90;;;;;;4995936;28;20467;-87
2022/04/06 06:58:33;;;;;;;4.07;3.67;;;10.50;99.90;;;;;;4997599;28;20945;-86
2022/04/06 07:01:00;;;;;;;3.33;3.10;;;10.50;99.90;;;;;;4998280;28;20198;-85
2022/04/06 07:03:25;;;;;;;3.87;3.50;;;10.50;99.90;;;;;;4987314;28;20665;-86
2022/04/06 07:05:51;;;;;;;3.00;2.70;;;10.50;99.90;;;;;;4997136;28;20481;-85
2022/04/06 07:08:16;;;;;;;4.20;2.70;;;10.60;99.90;;;;;;4989403;28;20180;-85
2022/04/06 07:10:46;;;;;;;3.10;2.60;;;10.60;99.90;;;;;;4989922;28;20235;-89
2022/04/06 07:13:12;;;;;;;3.20;3.00;;;10.60;99.90;;;;;;4990647;28;20619;-93
2022/04/06 07:15:39;;;;;;;2.60;2.40;;;10.60;99.90;;;;;;5000818;28;20448;-88
2022/04/06 07:18:07;;;;;;;3.27;2.70;;;10.60;99.90;;;;;;4989313;28;20878;-88
2022/04/06 07:20:35;;;;;;;2.80;2.60;;;10.70;99.90;;;;;;5005859;28;20462;-87
2022/04/06 07:23:04;;;;;;;3.57;3.23;;;10.80;99.90;;;;;;4991025;28;20448;-88
2022/04/06 07:25:30;;;;;;;4.30;2.93;;;10.80;99.90;;;;;;4990081;28;20491;-86
2022/04/06 07:27:56;;;;;;;2.90;2.70;;;10.80;99.90;;;;;;4993014;28;20447;-88
2022/04/06 07:30:22;;;;;;;3.43;3.13;;;10.90;99.90;;;;;;4989213;28;20456;-89
2022/04/06 07:32:50;;;;;;;3.03;2.73;;;10.80;99.90;;;;;;4998967;28;20189;-88
2022/04/06 07:35:18;;;;;;;3.23;2.93;;;10.90;99.90;;;;;;4992712;28;20205;-88
2022/04/06 07:37:48;;;;;;;3.30;3.00;;;10.90;99.90;;;;;;4987428;28;20444;-86
2022/04/06 07:40:15;;;;;;;2.97;2.77;;;10.90;99.90;;;;;;5002024;28;20534;-87
2022/04/06 07:42:41;;;;;;;3.60;3.30;;;11.00;99.90;;;;;;4990542;28;22128;-87
2022/04/06 07:45:18;;;;;;;3.07;2.87;;;11.10;99.90;;;;;;5004852;28;20494;-87
2022/04/06 07:47:48;;;;;;;3.23;3.03;;;11.10;99.90;;;;;;4989010;28;20494;-85
2022/04/06 07:50:14;;;;;;;5.00;4.17;;;11.20;99.90;;;;;;4983430;28;21391;-86
2022/04/06 07:52:41;;;;;;;3.47;3.17;;;11.20;99.90;;;;;;4991785;28;20463;-87
2022/04/06 07:55:08;;;;;;;3.90;3.50;;;11.10;99.90;;;;;;4988014;28;20565;-86
2022/04/06 07:57:35;;;;;;;4.00;3.23;;;11.20;99.90;;;;;;4987070;28;20522;-85
2022/04/06 08:00:11;;;;;;;2.87;2.67;;;11.20;99.90;;;;;;4992607;28;20983;-86
2022/04/06 08:02:39;;;;;;;3.10;2.90;;;11.20;99.90;;;;;;4992689;28;20448;-86
2022/04/06 08:05:07;;;;;;;3.63;3.13;;;11.20;99.90;;;;;;4985272;28;20467;-87
2022/04/06 08:07:33;;;;;;;2.73;2.53;;;11.30;99.90;;;;;;4981705;28;20464;-86
2022/04/06 08:09:59;;;;;;;3.57;3.27;;;11.30;99.90;;;;;;4996987;28;20443;-87
2022/04/06 08:12:27;;;;;;;3.20;3.00;;;11.40;99.90;;;;;;4984649;28;20454;-87
2022/04/06 08:14:53;;;;;;;4.37;3.03;;;11.40;99.90;;;;;;4979793;28;20447;-85
2022/04/06 08:17:18;;;;;;;5.77;3.10;;;11.50;99.90;;;;;;4982713;28;20480;-85
2022/04/06 08:19:44;;;;;;;2.93;2.73;;;11.70;99.90;;;;;;4990611;28;20185;-85
2022/04/06 08:22:09;;;;;;;2.30;2.10;;;11.80;99.90;;;;;;4973020;28;20197;-90
2022/04/06 08:24:35;;;;;;;1.87;1.77;;;11.60;99.90;;;;;;4985189;28;20211;-86
2022/04/06 08:27:00;;;;;;;2.40;2.20;;;11.60;99.90;;;;;;4978328;28;20334;-87
2022/04/06 08:29:26;;;;;;;2.50;2.30;;;11.70;99.90;;;;;;4971158;28;20194;-86
2022/04/06 08:32:06;;;;;;;3.00;2.70;;;11.60;99.90;;;;;;4985971;28;20270;-85
2022/04/06 08:34:34;;;;;;;2.47;2.27;;;11.70;99.90;;;;;;4986888;28;21603;-87
2022/04/06 08:37:01;;;;;;;2.27;2.13;;;11.60;99.90;;;;;;4985126;28;20259;-86
2022/04/06 08:39:27;;;;;;;2.47;2.27;;;11.80;99.90;;;;;;4996084;28;20447;-86
2022/04/06 08:41:54;;;;;;;2.70;2.50;;;11.90;99.90;;;;;;4996821;28;20441;-85
2022/04/06 08:44:40;;;;;;;2.37;2.17;;;12.20;99.90;;;;;;4985370;28;20238;-86
2022/04/06 08:47:06;;;;;;;1.80;1.70;;;12.30;99.90;;;;;;4981878;28;20956;-86
2022/04/06 08:49:35;;;;;;;1.80;1.70;;;12.40;99.90;;;;;;4979866;28;20479;-86
2022/04/06 08:52:03;;;;;;;1.90;1.80;;;12.50;99.90;;;;;;4992893;28;20454;-86
2022/04/06 08:54:32;;;;;;;2.10;2.00;;;12.70;99.90;;;;;;4985388;28;20452;-86
2022/04/06 08:56:58;;;;;;;2.30;2.10;;;12.70;99.90;;;;;;4977396;28;20432;-85
2022/04/06 08:59:23;;;;;;;4.00;2.03;;;12.40;99.90;;;;;;4976338;28;21028;-85
2022/04/06 09:01:49;;;;;;;2.13;1.63;;;12.30;99.90;;;;;;4987304;28;20716;-85
2022/04/06 09:04:15;;;;;;;1.87;1.77;;;12.30;99.90;;;;;;4984497;28;20189;-84
2022/04/06 09:06:42;;;;;;;7.43;6.60;;;12.20;99.90;;;;;;4977906;28;20193;-85
2022/04/06 09:09:08;;;;;;;2.00;1.90;;;12.30;99.90;;;;;;4979025;28;22875;-87
2022/04/06 09:11:44;;;;;;;2.13;2.00;;;12.60;99.90;;;;;;4986096;28;20440;-85
2022/04/06 09:14:13;;;;;;;2.00;1.80;;;12.90;99.90;;;;;;4974559;28;20445;-86
2022/04/06 09:16:38;;;;;;;2.40;1.60;;;13.10;99.90;;;;;;4981027;28;20448;-85
2022/04/06 09:19:12;;;;;;;1.50;1.40;;;13.10;99.90;;;;;;4981299;28;20742;-86
2022/04/06 09:21:43;;;;;;;1.70;1.60;;;13.10;99.90;;;;;;4974223;28;20332;-86
2022/04/06 09:24:27;;;;;;;1.67;1.57;;;13.10;99.90;;;;;;4968605;28;20514;-86
2022/04/06 09:26:57;;;;;;;1.50;1.40;;;13.30;99.90;;;;;;4982529;28;20448;-85
2022/04/06 09:29:23;;;;;;;1.60;1.50;;;13.30;99.90;;;;;;4976077;28;20474;-85
2022/04/06 09:31:49;;;;;;;2.00;1.73;;;13.40;99.90;;;;;;4977941;28;20952;-84
2022/04/06 09:34:15;;;;;;;2.23;2.03;;;13.80;99.90;;;;;;4971500;28;20459;-89
2022/04/06 09:36:41;;;;;;;1.57;1.47;;;13.60;99.90;;;;;;4981264;28;21238;-86
2022/04/06 09:39:07;;;;;;;2.40;1.10;;;13.50;99.90;;;;;;4974509;28;20211;-86
2022/04/06 09:41:53;;;;;;;1.80;1.13;;;13.70;99.90;;;;;;4994971;28;20172;-87
2022/04/06 09:50:12;;;;;;;1.60;1.03;;;13.40;99.90;;;;;;4976846;28;20959;-85
2022/04/06 09:52:39;;;;;;;1.03;0.97;;;13.70;99.90;;;;;;4984656;28;20444;-84
2022/04/06 09:55:07;;;;;;;0.93;0.93;;;13.90;99.90;;;;;;4970031;28;20575;-86
2022/04/06 09:58:03;;;;;;;1.10;1.00;;;14.20;99.90;;;;;;4965534;28;20446;-85
2022/04/06 10:00:30;;;;;;;1.10;0.90;;;14.30;99.10;;;;;;4970057;28;21559;-86
2022/04/06 10:03:03;;;;;;;1.20;1.00;;;14.60;98.40;;;;;;4962781;28;20444;-83
2022/04/06 10:05:33;;;;;;;1.00;0.90;;;15.10;97.30;;;;;;4999089;28;20475;-87
2022/04/06 10:08:07;;;;;;;0.90;0.87;;;14.90;96.90;;;;;;4977279;28;20756;-88
2022/04/06 10:10:33;;;;;;;1.73;0.97;;;14.30;98.20;;;;;;4965665;28;20459;-90
2022/04/06 10:12:59;;;;;;;1.90;0.90;;;14.40;98.10;;;;;;4970895;28;21493;-88
2022/04/06 10:15:25;;;;;;;1.47;0.80;;;14.60;98.20;;;;;;4980582;28;20452;-87
2022/04/06 10:17:52;;;;;;;1.00;1.00;;;14.50;97.90;;;;;;4975748;28;20191;-84
2022/04/06 10:20:25;;;;;;;0.83;0.83;;;14.60;97.70;;;;;;4966118;28;20435;-81
2022/04/06 10:23:05;;;;;;;1.50;1.40;;;14.20;98.70;;;;;;4986708;28;20436;-84
2022/04/06 10:25:51;;;;;;;0.70;0.70;;;14.80;99.60;;;;;;4997283;28;20507;-86
2022/04/06 10:28:47;;;;;;;3.20;1.00;;;15.20;97.70;;;;;;4980486;28;20491;-87
2022/04/06 10:31:28;;;;;;;0.90;0.90;;;15.10;97.70;;;;;;4966130;28;20980;-91
2022/04/06 10:34:25;;;;;;;1.50;1.00;;;14.40;97.10;;;;;;4981919;28;20509;-83
2022/04/06 10:37:13;;;;;;;1.60;0.90;;;14.30;97.50;;;;;;4977066;28;20723;-86
2022/04/06 10:39:51;;;;;;;1.47;1.10;;;14.40;97.70;;;;;;4973500;28;20868;-86
2022/04/06 10:42:35;;;;;;;0.80;0.80;;;14.20;97.50;;;;;;4974514;28;20447;-84
2022/04/06 10:45:03;;;;;;;0.50;0.50;;;14.30;97.40;;;;;;4981726;28;20478;-85
2022/04/06 10:47:29;;;;;;;1.60;0.70;;;14.70;96.90;;;;;;4978075;28;20436;-84
2022/04/06 10:50:16;;;;;;;0.60;0.60;;;15.10;96.30;;;;;;4977588;28;21155;-84
2022/04/06 10:52:43;;;;;;;1.13;0.50;;;15.80;95.10;;;;;;4977887;28;20440;-85
2022/04/06 10:55:11;;;;;;;0.77;0.77;;;16.10;95.00;;;;;;4981852;28;20455;-84
2022/04/06 10:57:56;;;;;;;0.70;0.70;;;16.00;93.90;;;;;;4979665;28;21230;-83
2022/04/06 11:00:22;;;;;;;1.23;0.80;;;15.00;94.70;;;;;;4979290;28;20895;-84
2022/04/06 11:02:50;;;;;;;1.73;1.20;;;14.60;95.30;;;;;;4982711;28;20786;-85
2022/04/06 11:05:43;;;;;;;0.87;0.87;;;14.40;95.60;;;;;;4986769;28;20217;-84
2022/04/06 11:11:39;;;;;;;1.10;1.00;;;14.30;95.70;;;;;;4965139;28;20551;-85
2022/04/06 11:14:05;;;;;;;0.63;0.63;;;14.20;95.80;;;;;;4967160;28;20444;-84
2022/04/06 11:16:40;;;;;;;1.07;0.57;;;14.40;95.90;;;;;;4972616;28;20471;-83
2022/04/06 11:19:06;;;;;;;0.87;0.70;;;15.10;95.40;;;;;;4965059;28;20444;-84
2022/04/06 11:21:32;;;;;;;0.70;0.70;;;15.90;94.10;;;;;;4969901;28;20474;-84
2022/04/06 11:23:58;;;;;;;0.70;0.70;;;15.90;93.50;;;;;;4964889;28;20455;-86
2022/04/06 11:26:25;;;;;;;1.43;0.60;;;16.20;93.60;;;;;;4963476;28;20270;-84
2022/04/06 11:29:00;;;;;;;0.70;0.70;;;17.10;92.20;;;;;;4964037;28;20181;-84
2022/04/06 11:31:26;;;;;;;1.80;0.90;;;17.10;91.50;;;;;;4966837;28;20463;-84
2022/04/06 11:33:51;;;;;;;0.63;0.63;;;16.80;90.80;;;;;;4963463;28;20996;-84
2022/04/06 11:36:18;;;;;;;0.60;0.60;;;17.00;90.80;;;;;;4975484;28;20440;-85
2022/04/06 11:38:51;;;;;;;0.60;0.60;;;16.70;89.40;;;;;;4962014;28;20300;-85
2022/04/06 11:41:18;;;;;;;0.50;0.50;;;16.70;90.80;;;;;;4966881;28;20440;-84
2022/04/06 11:43:44;;;;;;;0.53;0.53;;;16.80;91.20;;;;;;4964058;28;20452;-84
2022/04/06 11:46:10;;;;;;;0.80;0.63;;;16.60;91.40;;;;;;4982501;28;20484;-85
2022/04/06 11:48:43;;;;;;;0.67;0.60;;;16.90;91.40;;;;;;4958779;28;20732;-85
2022/04/06 11:51:09;;;;;;;1.10;0.80;;;16.80;91.30;;;;;;4964397;28;20204;-85
2022/04/06 11:53:35;;;;;;;1.47;0.80;;;16.90;91.30;;;;;;4975179;28;20439;-85
2022/04/06 11:56:01;;;;;;;3.67;0.90;;;17.80;90.40;;;;;;4971928;28;20451;-84
2022/04/06 11:58:41;;;;;;;1.03;0.87;;;18.10;88.60;;;;;;4975542;28;20435;-86
2022/04/06 12:01:15;;;;;;;0.43;0.40;;;17.90;87.20;;;;;;4973928;28;20454;-85
2022/04/06 12:03:44;;;;;;;0.80;0.80;;;17.70;88.20;;;;;;4967566;28;21231;-87
2022/04/06 12:06:11;;;;;;;0.43;0.43;;;17.10;90.20;;;;;;4981695;28;20609;-87
2022/04/06 12:08:39;;;;;;;0.53;0.53;;;17.00;90.30;;;;;;4971062;28;20439;-88
2022/04/06 12:11:05;;;;;;;1.90;0.60;;;17.20;88.60;;;;;;4995513;28;20451;-88
2022/04/06 12:13:41;;;;;;;0.70;0.70;;;16.70;89.40;;;;;;4996383;28;20459;-88
2022/04/06 12:16:08;;;;;;;1.10;0.70;;;16.80;90.30;;;;;;4976514;28;20447;-87
2022/04/06 12:18:37;;;;;;;0.60;0.60;;;16.60;90.40;;;;;;4992373;28;20440;-89
2022/04/06 12:21:03;;;;;;;1.30;1.23;;;16.90;91.10;;;;;;4971839;28;22284;-87
2022/04/06 12:23:29;;;;;;;0.83;0.83;;;17.20;90.00;;;;;;4973273;28;20787;-85
2022/04/06 12:25:59;;;;;;;1.63;0.87;;;17.40;89.10;;;;;;4981004;28;20264;-85
2022/04/06 12:28:26;;;;;;;1.00;0.80;;;17.70;86.70;;;;;;4975097;28;20444;-85
2022/04/06 12:31:07;;;;;;;4.63;0.87;;;17.60;89.40;;;;;;5013989;28;20449;-88
2022/04/06 12:33:37;;;;;;;1.13;0.80;;;18.10;88.80;;;;;;5006380;28;20440;-84
2022/04/06 12:36:30;;;;;;;1.20;0.93;;;18.20;89.30;;;;;;4991680;28;20443;-86
2022/04/06 12:39:26;;;;;;;0.70;0.70;;;17.20;88.30;;;;;;5005772;28;20464;-85
2022/04/06 12:41:59;;;;;;;1.07;0.93;;;16.60;88.80;;;;;;4997208;28;20502;-85
2022/04/06 12:44:26;;;;;;;2.70;0.90;;;16.10;89.50;;;;;;4996258;28;20555;-84
2022/04/06 12:46:52;;;;;;;1.07;0.57;;;16.30;90.50;;;;;;4997417;28;20451;-84
2022/04/06 12:49:37;;;;;;;1.33;1.00;;;16.90;88.70;;;;;;4993553;28;20437;-83
2022/04/06 12:52:05;;;;;;;1.40;1.20;;;17.10;89.40;;;;;;4988805;28;20450;-85
2022/04/06 12:54:31;;;;;;;1.43;0.70;;;16.70;88.90;;;;;;5000575;28;20440;-87
2022/04/06 12:57:04;;;;;;;0.80;0.80;;;17.30;90.10;;;;;;4997801;28;20475;-86
2022/04/06 12:59:37;;;;;;;0.80;0.80;;;17.30;88.40;;;;;;4990603;28;20439;-86
2022/04/06 13:02:04;;;;;;;1.53;1.17;;;17.10;87.80;;;;;;4993881;28;20534;-86
2022/04/06 13:04:31;;;;;;;1.43;1.07;;;16.90;89.50;;;;;;4980339;28;20559;-88
2022/04/06 13:06:57;;;;;;;1.80;1.00;;;16.90;89.10;;;;;;4979442;28;20490;-87
2022/04/06 13:09:23;;;;;;;0.90;0.90;;;16.70;89.00;;;;;;4976669;28;20437;-86
2022/04/06 13:11:48;;;;;;;0.80;0.80;;;16.50;90.50;;;;;;4971835;28;20865;-88
2022/04/06 13:14:14;;;;;;;0.70;0.70;;;16.50;90.40;;;;;;4990717;28;20192;-87